Time;durP1;ratioP1;P1;durP2;ratioP2;P2;SDS_P1;SDS_P2;PMS_P1;PMS_P2;Temp;Humidity;BMP_temperature;BMP_pressure;BME280_temperature;BME280_humidity;BME280_pressure;Samples;Min_cycle;Max_cycle;Signal;HPM_P1;HPM_P2
2022/11/24 00:01:11;;;;;;;9.65;3.33;;;;;;;7.55;100.00;99936.72;5114087;28;20043;-69
2022/11/24 00:03:36;;;;;;;13.43;2.92;;;;;;;7.40;100.00;99898.81;5112917;28;20035;-67
2022/11/24 00:06:03;;;;;;;15.68;3.70;;;;;;;7.80;100.00;99966.38;5114167;28;20036;-69
2022/11/24 00:08:29;;;;;;;19.08;3.83;;;;;;;7.46;100.00;99910.84;5113966;28;20138;-66
2022/11/24 00:10:54;;;;;;;25.45;4.47;;;;;;;7.77;100.00;99966.50;5114105;28;20479;-68
2022/11/24 00:13:20;;;;;;;20.55;3.90;;;;;;;7.50;100.00;99915.09;5113989;28;20115;-69
2022/11/24 00:15:45;;;;;;;18.05;4.05;;;;;;;7.50;100.00;99915.91;5113393;28;20032;-69
2022/11/24 00:18:11;;;;;;;26.77;5.10;;;;;;;7.68;100.00;99951.09;5112588;28;20036;-68
2022/11/24 00:20:36;;;;;;;20.77;4.25;;;;;;;7.86;100.00;99977.50;5114021;28;20031;-69
2022/11/24 00:23:01;;;;;;;18.60;4.22;;;;;;;7.89;100.00;99987.03;5113789;28;20502;-68
2022/11/24 00:25:26;;;;;;;24.85;4.85;;;;;;;7.92;100.00;99973.81;5113783;28;20040;-68
2022/11/24 00:27:52;;;;;;;30.90;6.25;;;;;;;7.86;100.00;99977.50;5113841;28;20031;-68
2022/11/24 00:30:17;;;;;;;27.75;4.45;;;;;;;7.50;100.00;99925.56;5095345;28;20403;-69
2022/11/24 00:32:42;;;;;;;23.75;4.82;;;;;;;7.80;100.00;99988.22;5113759;28;20028;-68
2022/11/24 00:35:08;;;;;;;22.33;4.50;;;;;;;7.86;100.00;99981.91;5114029;28;20039;-69
2022/11/24 00:37:33;;;;;;;18.05;4.82;;;;;;;7.49;100.00;99911.59;5113246;28;20450;-68
2022/11/24 00:39:58;;;;;;;21.20;5.03;;;;;;;7.81;100.00;99983.81;5113436;28;20041;-66
2022/11/24 00:42:23;;;;;;;20.80;4.22;;;;;;;7.74;100.00;99984.94;5113392;28;20031;-68
2022/11/24 00:44:49;;;;;;;20.50;4.18;;;;;;;7.26;100.00;99912.41;5113304;28;20032;-68
2022/11/24 00:47:14;;;;;;;20.35;3.75;;;;;;;7.67;100.00;99988.69;5113831;28;20039;-68
2022/11/24 00:49:39;;;;;;;19.05;3.97;;;;;;;7.13;100.00;99923.31;5113322;28;20079;-67
2022/11/24 00:52:05;;;;;;;19.73;4.38;;;;;;;7.41;100.00;99971.25;5113354;28;20042;-66
2022/11/24 00:54:30;;;;;;;22.77;4.15;;;;;;;7.49;100.00;99976.22;5113243;28;20039;-69
2022/11/24 00:56:55;;;;;;;19.40;4.90;;;;;;;7.29;100.00;99946.31;5094796;28;20506;-67
2022/11/24 00:59:20;;;;;;;18.33;4.63;;;;;;;7.57;100.00;99995.13;5111650;28;20031;-68
2022/11/24 01:01:46;;;;;;;21.65;4.97;;;;;;;7.20;100.00;99930.91;5113361;28;20028;-68
2022/11/24 01:04:11;;;;;;;15.68;3.67;;;;;;;7.55;100.00;99992.56;5113230;28;20038;-68
2022/11/24 01:06:36;;;;;;;19.95;4.95;;;;;;;7.58;100.00;100012.56;5112869;28;20035;-67
2022/11/24 01:09:02;;;;;;;16.23;4.40;;;;;;;7.44;100.00;99970.28;5111469;28;20479;-68
2022/11/24 01:12:00;;;;;;;18.63;4.35;;;;;;;7.54;100.00;100022.28;5111599;28;20055;-68
2022/11/24 01:14:20;;;;;;;21.27;3.70;;;;;;;7.22;100.00;99964.88;5111669;28;20391;-68
2022/11/24 01:16:46;;;;;;;21.48;4.68;;;;;;;7.43;100.00;100016.53;5112130;28;20042;-68
2022/11/24 01:19:11;;;;;;;18.23;3.72;;;;;;;7.38;100.00;100011.44;5095094;28;20442;-68
2022/11/24 01:21:36;;;;;;;22.05;4.25;;;;;;;7.41;100.00;100020.13;5112720;28;20034;-68
2022/11/24 01:24:02;;;;;;;16.02;4.28;;;;;;;7.36;100.00;100010.66;5112671;28;20441;-67
2022/11/24 01:26:27;;;;;;;13.93;3.45;;;;;;;7.00;100.00;99961.25;5112508;28;20380;-67
2022/11/24 01:28:54;;;;;;;15.57;3.38;;;;;;;7.24;100.00;100012.78;5112579;28;20126;-66
2022/11/24 01:31:19;;;;;;;16.90;3.67;;;;;;;6.98;100.00;99965.66;5111476;28;20034;-67
2022/11/24 01:33:45;;;;;;;15.82;4.00;;;;;;;7.38;100.00;100020.22;5112634;28;20364;-66
2022/11/24 01:36:10;;;;;;;15.90;4.25;;;;;;;7.47;100.00;100022.53;5112364;28;20064;-67
2022/11/24 01:38:35;;;;;;;14.07;3.40;;;;;;;7.31;100.00;99998.59;5112821;28;20046;-66
2022/11/24 01:41:11;;;;;;;13.25;3.03;;;;;;;7.47;100.00;100036.50;5112400;28;20042;-66
2022/11/24 01:43:36;;;;;;;11.30;3.50;;;;;;;7.45;100.00;100040.03;5112598;28;20480;-68
2022/11/24 01:46:12;;;;;;;13.93;3.50;;;;;;;7.13;100.00;99993.97;5112433;28;20046;-66
2022/11/24 01:48:42;;;;;;;16.25;3.65;;;;;;;7.49;100.00;100047.78;5111175;28;20507;-66
2022/11/24 01:51:17;;;;;;;18.02;3.60;;;;;;;7.54;100.00;100047.59;5111102;28;20019;-66
2022/11/24 01:53:45;;;;;;;13.02;3.13;;;;;;;7.60;100.00;100050.88;5112222;28;20039;-67
2022/11/24 01:56:11;;;;;;;13.27;3.30;;;;;;;7.62;100.00;100053.44;5111160;28;20024;-66
2022/11/24 01:58:39;;;;;;;15.10;3.55;;;;;;;7.67;100.00;100057.66;5111075;28;20035;-67
2022/11/24 02:01:05;;;;;;;11.25;3.08;;;;;;;7.65;100.00;100030.63;5094122;28;20027;-66
2022/11/24 02:03:34;;;;;;;9.02;3.00;;;;;;;7.43;100.00;99989.50;5110834;28;20089;-66
2022/11/24 02:06:07;;;;;;;17.00;3.70;;;;;;;7.78;100.00;100068.63;5111019;28;20479;-66
2022/11/24 02:09:08;;;;;;;21.95;3.75;;;;;;;7.76;100.00;100073.03;5112378;28;20031;-66
2022/11/24 02:11:36;;;;;;;12.33;2.97;;;;;;;7.44;100.00;100005.19;5103721;28;20125;-65
2022/11/24 02:14:03;;;;;;;17.85;3.95;;;;;;;7.70;100.00;100049.69;5110978;28;20494;-66
2022/11/24 02:16:29;;;;;;;13.40;3.20;;;;;;;7.44;100.00;100005.19;5111710;28;20126;-66
2022/11/24 02:18:54;;;;;;;14.55;3.33;;;;;;;7.46;100.00;100013.81;5110986;28;20070;-66
2022/11/24 02:21:20;;;;;;;14.07;3.45;;;;;;;7.75;100.00;100081.81;5110395;28;20487;-68
2022/11/24 02:24:02;;;;;;;12.18;2.72;;;;;;;7.76;100.00;100103.66;5112049;28;20080;-66
2022/11/24 02:26:47;;;;;;;15.70;3.58;;;;;;;7.81;100.00;100106.97;5110763;28;20036;-66
2022/11/24 02:29:13;;;;;;;7.68;2.70;;;;;;;7.79;100.00;100111.41;5110941;28;20081;-67
2022/11/24 02:31:40;;;;;;;13.15;2.80;;;;;;;7.60;100.00;100078.84;5112318;28;20463;-68
2022/11/24 02:34:06;;;;;;;11.35;2.92;;;;;;;7.74;100.00;100102.81;5111152;28;20075;-66
2022/11/24 02:36:31;;;;;;;13.13;2.90;;;;;;;7.70;100.00;100102.09;5127246;28;20074;-66
2022/11/24 02:38:56;;;;;;;12.40;2.42;;;;;;;7.34;100.00;100045.63;5110673;28;20046;-66
2022/11/24 02:41:24;;;;;;;8.27;2.10;;;;;;;7.56;100.00;100064.16;5115499;28;20043;-66
2022/11/24 02:43:58;;;;;;;8.23;2.00;;;;;;;7.38;100.00;100043.78;5116020;28;20098;-65
2022/11/24 02:46:23;;;;;;;8.63;1.83;;;;;;;7.42;100.00;100051.47;5114685;28;20028;-66
2022/11/24 02:48:49;;;;;;;11.30;2.80;;;;;;;7.60;100.00;100081.47;5114588;28;20035;-67
2022/11/24 02:51:14;;;;;;;6.50;1.52;;;;;;;7.62;100.00;100082.25;5097566;28;20056;-66
2022/11/24 02:53:39;;;;;;;9.52;1.80;;;;;;;7.54;100.00;100077.28;5115690;28;20028;-66
2022/11/24 02:56:05;;;;;;;7.32;1.67;;;;;;;7.65;100.00;100100.50;5114022;28;20063;-66
2022/11/24 02:58:30;;;;;;;6.82;2.00;;;;;;;7.59;100.00;100087.63;5114325;28;20044;-67
2022/11/24 03:00:56;;;;;;;7.65;1.52;;;;;;;7.42;100.00;100050.63;5114546;28;20039;-66
2022/11/24 03:03:22;;;;;;;4.18;1.10;;;;;;;7.73;100.00;100109.84;5114540;28;20088;-66
2022/11/24 03:05:47;;;;;;;6.93;1.58;;;;;;;7.84;100.00;100117.34;5114237;28;20421;-66
2022/11/24 03:08:13;;;;;;;5.18;0.88;;;;;;;7.54;100.00;100063.31;5096693;28;20046;-65
2022/11/24 03:10:38;;;;;;;4.07;1.00;;;;;;;7.64;100.00;100085.69;5115033;28;20032;-65
2022/11/24 03:13:04;;;;;;;4.47;0.85;;;;;;;7.57;100.00;100071.06;5115020;27;20520;-66
2022/11/24 03:15:29;;;;;;;3.92;0.70;;;;;;;7.91;100.00;100131.94;5115076;28;20031;-65
2022/11/24 03:17:57;;;;;;;1.60;0.47;;;;;;;8.00;100.00;100134.25;5114952;28;20108;-66
2022/11/24 03:20:23;;;;;;;1.73;0.70;;;;;;;7.69;100.00;100074.16;5115054;28;20066;-66
2022/11/24 03:22:49;;;;;;;1.13;0.40;;;;;;;8.00;100.00;100136.06;5113807;28;20118;-65
2022/11/24 03:25:14;;;;;;;4.28;1.23;;;;;;;7.67;100.00;100094.31;5115004;28;20123;-65
2022/11/24 03:27:39;;;;;;;6.18;1.40;;;;;;;8.09;100.00;100161.94;5113794;28;20042;-65
2022/11/24 03:30:05;;;;;;;5.93;1.40;;;;;;;8.10;100.00;100158.41;5114948;28;20031;-66
2022/11/24 03:32:30;;;;;;;5.57;1.10;;;;;;;8.07;100.00;100167.25;5114765;28;20434;-66
2022/11/24 03:34:56;;;;;;;6.20;1.88;;;;;;;8.10;100.00;100168.91;5114832;28;20057;-66
2022/11/24 03:37:21;;;;;;;7.10;2.20;;;;;;;7.62;100.00;100093.59;5113420;28;20059;-66
2022/11/24 03:39:47;;;;;;;7.45;1.67;;;;;;;7.82;100.00;100121.78;5113266;28;20031;-66
2022/11/24 03:42:12;;;;;;;12.68;2.30;;;;;;;8.16;100.00;100184.44;5113594;28;20031;-66
2022/11/24 03:44:37;;;;;;;10.73;2.78;;;;;;;8.11;100.00;100204.69;5114521;28;20401;-66
2022/11/24 03:47:03;;;;;;;12.13;2.28;;;;;;;8.18;100.00;100183.47;5096051;28;20475;-66
2022/11/24 03:49:28;;;;;;;15.00;3.08;;;;;;;7.87;100.00;100127.72;5114587;28;20035;-67
2022/11/24 03:51:53;;;;;;;9.80;1.85;;;;;;;8.22;100.00;100194.72;5114288;28;20035;-67
2022/11/24 03:54:19;;;;;;;10.52;2.80;;;;;;;7.79;100.00;100116.66;5113183;28;20476;-66
2022/11/24 03:56:44;;;;;;;10.35;2.50;;;;;;;8.22;100.00;100199.97;5114149;28;20090;-67
2022/11/24 03:59:09;;;;;;;14.88;2.83;;;;;;;7.93;100.00;100141.50;5113000;28;20055;-67
2022/11/24 04:01:34;;;;;;;10.50;2.35;;;;;;;8.24;100.00;100212.09;5114418;28;20040;-67
2022/11/24 04:04:00;;;;;;;8.02;2.35;;;;;;;8.22;100.00;100207.81;5114213;28;20425;-67
2022/11/24 04:06:25;;;;;;;9.93;2.72;;;;;;;8.20;100.00;100207.84;5114361;28;20044;-66
2022/11/24 04:08:51;;;;;;;12.95;2.47;;;;;;;8.11;100.00;100197.69;5114042;28;20118;-66
2022/11/24 04:14:00;;;;;;;14.90;2.78;;;;;;;8.15;100.00;100228.13;5113261;28;20116;-66
2022/11/24 04:16:25;;;;;;;9.13;2.63;;;;;;;8.00;100.00;100222.53;5114069;28;20098;-67
2022/11/24 04:18:53;;;;;;;8.88;2.28;;;;;;;7.62;100.00;100174.78;5114078;28;20042;-68
2022/11/24 04:21:19;;;;;;;9.93;2.05;;;;;;;7.54;100.00;100194.25;5113954;28;20067;-66
2022/11/24 04:23:45;;;;;;;6.90;1.60;;;;;;;7.61;100.00;100224.63;5112738;28;20112;-66
2022/11/24 04:26:10;;;;;;;6.75;1.85;;;;;;;7.58;100.00;100237.78;5113781;28;20036;-67
2022/11/24 04:28:35;;;;;;;3.08;0.70;;;;;;;7.34;100.00;100226.28;5113755;28;20031;-66
2022/11/24 04:31:01;;;;;;;3.33;0.93;;;;;;;7.05;100.00;100202.69;5113683;27;20027;-69
2022/11/24 04:33:27;;;;;;;5.07;0.98;;;;;;;6.87;100.00;100198.81;5113838;28;20035;-67
2022/11/24 04:35:52;;;;;;;3.63;0.55;;;;;;;7.08;100.00;100261.03;5113516;28;20454;-65
2022/11/24 04:38:18;;;;;;;2.60;0.60;;;;;;;7.06;100.00;100260.22;5113813;28;20035;-66
2022/11/24 04:40:43;;;;;;;2.28;0.50;;;;;;;6.60;100.00;100183.88;5113800;28;20038;-66
2022/11/24 04:43:09;;;;;;;6.65;0.80;;;;;;;6.58;100.00;100191.75;5112353;28;20039;-66
2022/11/24 04:45:34;;;;;;;3.72;0.68;;;;;;;6.59;100.00;100200.47;5112436;28;20525;-65
2022/11/24 04:47:59;;;;;;;1.70;0.60;;;;;;;6.86;100.00;100267.72;5112830;28;20830;-65
2022/11/24 04:50:25;;;;;;;3.53;0.73;;;;;;;6.80;100.00;100260.91;5113857;28;20057;-66
2022/11/24 04:52:51;;;;;;;5.22;0.95;;;;;;;6.40;100.00;100196.59;5113458;28;20036;-66
2022/11/24 04:55:16;;;;;;;4.50;0.70;;;;;;;6.33;100.00;100189.81;5113467;28;20027;-66
2022/11/24 04:57:42;;;;;;;4.78;1.10;;;;;;;6.40;100.00;100212.28;5095171;28;20172;-66
2022/11/24 05:00:09;;;;;;;4.65;0.70;;;;;;;6.72;100.00;100272.47;5112459;28;20476;-65
2022/11/24 05:02:34;;;;;;;3.78;0.52;;;;;;;6.75;100.00;100290.69;5111471;28;20119;-66
2022/11/24 05:05:00;;;;;;;4.07;0.95;;;;;;;6.70;100.00;100285.59;5112130;28;20137;-65
2022/11/24 05:07:25;;;;;;;6.07;0.60;;;;;;;6.72;100.00;100288.16;5113339;28;20051;-66
2022/11/24 05:12:35;;;;;;;3.72;0.55;;;;;;;6.39;100.00;100240.19;5112015;28;20042;-66
2022/11/24 05:15:02;;;;;;;3.15;0.80;;;;;;;6.00;100.00;100187.16;5111503;28;20035;-68
2022/11/24 05:17:32;;;;;;;4.57;0.60;;;;;;;6.29;100.00;100243.06;5111705;28;20030;-68
2022/11/24 05:19:57;;;;;;;5.60;0.65;;;;;;;6.46;100.00;100267.91;5111834;28;20063;-67
2022/11/24 05:22:23;;;;;;;6.88;1.20;;;;;;;6.68;100.00;100307.47;5112670;28;20063;-67
2022/11/24 05:24:48;;;;;;;2.85;0.73;;;;;;;6.68;100.00;100325.78;5111147;28;20059;-68
2022/11/24 05:27:13;;;;;;;3.15;0.60;;;;;;;6.69;100.00;100319.63;5113047;28;20042;-65
2022/11/24 05:29:39;;;;;;;1.75;0.68;;;;;;;6.70;100.00;100323.97;5111539;28;20034;-66
2022/11/24 05:32:04;;;;;;;4.40;1.10;;;;;;;6.67;100.00;100335.38;5112788;28;20035;-66
2022/11/24 05:34:32;;;;;;;4.25;0.60;;;;;;;6.74;100.00;100350.00;5093882;28;20043;-65
2022/11/24 05:37:01;;;;;;;3.90;0.75;;;;;;;6.70;100.00;100345.75;5112256;28;20090;-66
2022/11/24 05:39:28;;;;;;;4.50;0.73;;;;;;;6.48;100.00;100294.84;5111426;28;20118;-65
2022/11/24 05:41:53;;;;;;;6.53;1.27;;;;;;;6.77;100.00;100354.31;5111265;28;20023;-66
2022/11/24 05:44:18;;;;;;;7.80;1.83;;;;;;;6.30;100.00;100277.03;5112544;28;20073;-65
2022/11/24 05:46:43;;;;;;;6.95;1.85;;;;;;;6.39;100.00;100297.69;5111165;28;20480;-66
2022/11/24 05:49:09;;;;;;;5.47;1.52;;;;;;;6.73;100.00;100360.50;5112666;28;20032;-67
2022/11/24 05:51:34;;;;;;;6.57;1.85;;;;;;;6.39;100.00;100300.28;5112166;28;20100;-66
2022/11/24 05:53:59;;;;;;;5.80;1.98;;;;;;;6.77;100.00;100365.63;5112185;28;20059;-66
2022/11/24 05:56:25;;;;;;;2.75;1.60;;;;;;;6.87;100.00;100370.63;5112132;28;20310;-66
2022/11/24 05:58:50;;;;;;;4.78;2.20;;;;;;;6.89;100.00;100376.69;5112127;28;20053;-66
2022/11/24 06:01:15;;;;;;;5.18;2.20;;;;;;;6.85;100.00;100375.91;5112028;28;20438;-65
2022/11/24 06:03:41;;;;;;;5.25;2.42;;;;;;;6.93;100.00;100386.16;5110533;28;20063;-66
2022/11/24 06:06:06;;;;;;;8.60;3.15;;;;;;;6.85;100.00;100394.22;5111937;28;20032;-67
2022/11/24 06:08:32;;;;;;;5.97;2.85;;;;;;;6.57;100.00;100333.00;5093906;28;20040;-65
2022/11/24 06:11:16;;;;;;;6.15;2.80;;;;;;;6.65;100.00;100342.41;5111732;28;20523;-67
2022/11/24 06:13:43;;;;;;;7.70;3.30;;;;;;;6.99;100.00;100393.88;5110312;28;20032;-67
2022/11/24 06:16:08;;;;;;;6.95;3.47;;;;;;;6.60;100.00;100338.16;5114074;28;20092;-67
2022/11/24 06:18:33;;;;;;;10.68;3.47;;;;;;;6.59;100.00;100357.38;5113426;28;20043;-65
2022/11/24 06:21:01;;;;;;;9.45;4.45;;;;;;;6.96;100.00;100417.50;5114663;28;20027;-65
2022/11/24 06:23:27;;;;;;;7.90;3.90;;;;;;;6.84;100.00;100394.25;5115919;28;20042;-67
2022/11/24 06:25:52;;;;;;;12.73;4.40;;;;;;;7.02;100.00;100425.19;5112923;28;20126;-66
2022/11/24 06:28:17;;;;;;;11.70;4.57;;;;;;;6.68;100.00;100359.75;5114361;28;20046;-65
2022/11/24 06:30:43;;;;;;;9.55;4.25;;;;;;;7.06;100.00;100432.97;5114797;28;20028;-66
2022/11/24 06:33:08;;;;;;;10.65;4.55;;;;;;;6.81;100.00;100400.41;5113983;28;20020;-66
2022/11/24 06:35:33;;;;;;;10.27;4.35;;;;;;;6.93;100.00;100420.19;5115380;28;20403;-67
2022/11/24 06:37:58;;;;;;;10.90;4.75;;;;;;;6.68;100.00;100365.84;5114110;28;20059;-67
2022/11/24 06:40:24;;;;;;;13.07;5.40;;;;;;;6.71;100.00;100386.69;5115379;28;20043;-67
2022/11/24 06:42:51;;;;;;;10.77;4.03;;;;;;;7.03;100.00;100448.72;5113470;28;20180;-68
2022/11/24 06:45:16;;;;;;;7.72;4.32;;;;;;;7.02;100.00;100447.00;5113669;28;20027;-67
2022/11/24 06:47:41;;;;;;;13.25;4.60;;;;;;;6.98;100.00;100453.19;5097078;28;20038;-68
2022/11/24 06:50:08;;;;;;;8.80;4.90;;;;;;;7.00;100.00;100453.16;5114613;28;20035;-66
2022/11/24 06:52:33;;;;;;;11.77;5.18;;;;;;;7.07;100.00;100462.56;5114402;28;20109;-68
2022/11/24 06:54:59;;;;;;;9.15;4.47;;;;;;;6.69;100.00;100396.31;5114388;28;20032;-68
2022/11/24 06:57:26;;;;;;;12.23;5.30;;;;;;;6.80;100.00;100420.47;5113344;28;20074;-68
2022/11/24 06:59:51;;;;;;;11.57;4.80;;;;;;;6.63;100.00;100395.59;5113243;28;20076;-68
2022/11/24 07:02:16;;;;;;;12.32;4.88;;;;;;;6.63;100.00;100406.06;5114673;28;20035;-68
2022/11/24 07:04:42;;;;;;;11.02;5.72;;;;;;;6.85;100.00;100449.16;5115032;28;20035;-69
2022/11/24 07:07:07;;;;;;;13.65;5.22;;;;;;;6.74;100.00;100433.69;5113679;28;20031;-68
2022/11/24 07:09:32;;;;;;;13.20;6.25;;;;;;;7.09;100.00;100486.97;5115097;28;20024;-68
2022/11/24 07:11:58;;;;;;;13.23;6.00;;;;;;;7.09;100.00;100492.22;5114936;28;20440;-67
2022/11/24 07:14:23;;;;;;;14.85;5.70;;;;;;;7.15;100.00;100508.59;5115068;28;20042;-67
2022/11/24 07:16:48;;;;;;;13.45;6.60;;;;;;;6.74;100.00;100436.31;5114984;28;20031;-68
2022/11/24 07:19:14;;;;;;;14.82;6.03;;;;;;;6.75;100.00;100445.03;5114615;28;20079;-68
2022/11/24 07:21:39;;;;;;;14.43;5.97;;;;;;;7.05;100.00;100501.00;5114695;28;20107;-68
2022/11/24 07:24:05;;;;;;;12.82;6.10;;;;;;;6.99;100.00;100520.34;5114722;28;20080;-69
2022/11/24 07:26:35;;;;;;;15.48;6.53;;;;;;;6.93;100.00;100524.84;5112980;28;20151;-68
2022/11/24 07:29:01;;;;;;;11.02;6.50;;;;;;;6.99;100.00;100536.03;5114521;28;20119;-68
2022/11/24 07:31:26;;;;;;;13.90;6.20;;;;;;;7.05;100.00;100535.91;5114697;28;20502;-68
2022/11/24 07:33:53;;;;;;;14.18;7.05;;;;;;;7.11;100.00;100554.09;5114688;28;20032;-68
2022/11/24 07:36:18;;;;;;;13.18;6.25;;;;;;;6.76;100.00;100486.84;5112368;28;20058;-70
2022/11/24 07:38:44;;;;;;;16.42;6.40;;;;;;;6.76;100.00;100476.38;5112951;28;20035;-68
2022/11/24 07:41:10;;;;;;;14.27;6.38;;;;;;;6.85;100.00;100501.47;5112732;28;20085;-69
2022/11/24 07:43:37;;;;;;;17.60;6.43;;;;;;;6.95;100.00;100539.59;5111668;28;20452;-68
2022/11/24 07:46:04;;;;;;;15.65;5.85;;;;;;;6.91;100.00;100547.56;5112944;28;20398;-67
2022/11/24 07:48:30;;;;;;;16.75;6.25;;;;;;;6.55;100.00;100494.28;5113395;28;20034;-69
2022/11/24 07:50:58;;;;;;;14.38;6.32;;;;;;;6.75;100.00;100545.28;5112940;28;20027;-68
2022/11/24 07:53:23;;;;;;;16.50;6.20;;;;;;;6.82;100.00;100569.56;5112914;28;20038;-68
2022/11/24 07:55:56;;;;;;;17.95;5.78;;;;;;;6.47;100.00;100501.44;5112642;28;20373;-70
2022/11/24 07:58:22;;;;;;;19.63;6.28;;;;;;;6.52;100.00;100524.00;5111652;28;20052;-59
2022/11/24 08:00:47;;;;;;;14.20;4.95;;;;;;;6.66;100.00;100552.47;5113315;28;20040;-60
2022/11/24 08:03:13;;;;;;;19.17;5.00;;;;;;;6.62;100.00;100536.00;5113204;28;20107;-59
2022/11/24 08:05:38;;;;;;;17.63;4.38;;;;;;;6.92;100.00;100592.00;5111864;28;20047;-59
2022/11/24 08:08:03;;;;;;;12.60;4.72;;;;;;;6.96;100.00;100592.81;5112993;28;20032;-60
2022/11/24 08:10:29;;;;;;;16.65;4.15;;;;;;;6.62;100.00;100520.31;5112933;28;20123;-59
2022/11/24 08:12:54;;;;;;;20.13;4.55;;;;;;;6.94;100.00;100585.00;5112673;28;20040;-59
2022/11/24 08:15:20;;;;;;;18.52;4.47;;;;;;;6.96;100.00;100590.19;5111790;28;20059;-59
2022/11/24 08:17:45;;;;;;;22.15;4.32;;;;;;;6.64;100.00;100547.28;5113284;28;20081;-58
2022/11/24 08:20:10;;;;;;;18.15;4.10;;;;;;;7.07;100.00;100609.13;5113158;28;20032;-58
2022/11/24 08:22:36;;;;;;;20.52;5.07;;;;;;;7.12;100.00;100617.78;5114690;28;20043;-58
2022/11/24 08:25:01;;;;;;;15.50;3.95;;;;;;;7.09;100.00;100613.44;5113732;28;20038;-59
2022/11/24 08:27:28;;;;;;;18.38;4.38;;;;;;;7.10;100.00;100627.38;5112729;28;20043;-59
2022/11/24 08:29:54;;;;;;;16.92;3.83;;;;;;;6.74;100.00;100563.66;5112964;28;20067;-59
2022/11/24 08:32:19;;;;;;;16.88;4.88;;;;;;;6.77;100.00;100555.72;5112945;28;20067;-60
2022/11/24 08:34:45;;;;;;;14.75;4.10;;;;;;;6.90;100.00;100564.16;5112896;28;20032;-59
2022/11/24 08:38:48;;;;;;;22.92;4.38;;;;;;;7.20;100.00;100623.69;5109695;27;20535;-58
2022/11/24 08:41:15;;;;;;;16.27;4.30;;;;;;;6.73;100.00;100551.44;5109821;28;20046;-59
2022/11/24 08:43:41;;;;;;;16.65;4.53;;;;;;;7.17;100.00;100639.47;5108740;28;20473;-58
2022/11/24 08:46:09;;;;;;;17.83;4.75;;;;;;;7.11;100.00;100640.47;5108196;28;20040;-58
2022/11/24 08:48:35;;;;;;;14.60;3.78;;;;;;;6.69;100.00;100571.56;5108556;28;20028;-58
2022/11/24 08:51:10;;;;;;;17.98;4.28;;;;;;;7.09;100.00;100650.06;5109700;28;20038;-60
2022/11/24 08:53:35;;;;;;;18.35;4.07;;;;;;;7.14;100.00;100635.16;5109503;28;20514;-59
2022/11/24 08:56:02;;;;;;;17.65;3.92;;;;;;;7.31;100.00;100664.44;5108231;28;20049;-59
2022/11/24 08:58:28;;;;;;;28.65;4.60;;;;;;;6.86;100.00;100571.19;5108081;28;20039;-58
2022/11/24 09:00:53;;;;;;;20.10;4.35;;;;;;;7.20;100.00;100616.69;5108362;28;20119;-59
2022/11/24 09:03:19;;;;;;;17.85;4.75;;;;;;;7.23;100.00;100611.41;5109668;28;20089;-59
2022/11/24 09:05:44;;;;;;;17.15;4.57;;;;;;;7.79;100.00;100666.84;5109364;28;20028;-59
2022/11/24 09:08:09;;;;;;;19.10;4.00;;;;;;;7.52;100.00;100586.28;5109312;28;20615;-59
2022/11/24 09:10:34;;;;;;;18.95;4.93;;;;;;;8.15;100.00;100665.94;5109278;28;20401;-59
2022/11/24 09:13:00;;;;;;;16.95;4.55;;;;;;;8.12;100.00;100658.16;5109015;28;20038;-59
2022/11/24 09:15:25;;;;;;;19.17;3.92;;;;;;;8.25;100.00;100667.44;5107537;28;20028;-59
2022/11/24 09:17:51;;;;;;;16.27;4.35;;;;;;;8.17;100.00;100663.28;5109181;28;20042;-59
2022/11/24 09:20:16;;;;;;;18.25;4.00;;;;;;;8.18;100.00;100678.09;5108895;28;20042;-59
2022/11/24 09:22:42;;;;;;;20.42;4.97;;;;;;;7.99;100.00;100642.78;5108938;28;20119;-59
2022/11/24 09:25:08;;;;;;;13.55;4.13;;;;;;;8.18;100.00;100689.47;5109026;28;20496;-59
2022/11/24 09:27:33;;;;;;;18.70;4.00;;;;;;;7.75;100.00;100618.91;5107513;28;20040;-59
2022/11/24 09:29:58;;;;;;;19.77;4.18;;;;;;;8.07;100.00;100669.66;5105600;28;20084;-59
2022/11/24 09:32:24;;;;;;;28.55;4.72;;;;;;;7.88;100.00;100633.41;5108548;28;20062;-59
2022/11/24 09:34:50;;;;;;;19.63;4.15;;;;;;;8.33;100.00;100694.34;5107414;28;20039;-59
2022/11/24 09:37:16;;;;;;;16.88;3.85;;;;;;;8.49;100.00;100708.78;5098859;28;20048;-58
2022/11/24 09:39:41;;;;;;;18.80;3.90;;;;;;;8.24;100.00;100647.34;5088195;28;20048;-58
2022/11/24 09:42:30;;;;;;;20.13;3.88;;;;;;;8.46;100.00;100681.78;5088119;28;20040;-58
2022/11/24 09:44:59;;;;;;;16.75;3.25;;;;;;;8.74;100.00;100723.91;5086998;28;20032;-60
2022/11/24 09:47:31;;;;;;;18.25;3.45;;;;;;;8.81;100.00;100722.84;5086880;28;20029;-59
2022/11/24 09:50:05;;;;;;;18.35;3.17;;;;;;;8.46;100.00;100671.31;5075747;28;20071;-59
2022/11/24 09:52:37;;;;;;;16.10;3.20;;;;;;;8.53;100.00;100683.34;5074402;28;20494;-59
2022/11/24 09:55:04;;;;;;;13.88;3.17;;;;;;;8.89;100.00;100741.88;5071359;28;20045;-60
2022/11/24 09:57:34;;;;;;;19.05;3.60;;;;;;;8.82;100.00;100738.53;5068027;28;20032;-60
2022/11/24 10:00:03;;;;;;;23.95;3.90;;;;;;;8.83;100.00;100748.13;5072644;28;20131;-61
2022/11/24 10:02:29;;;;;;;16.65;3.40;;;;;;;8.34;100.00;100659.38;5062085;28;20021;-60
2022/11/24 10:04:55;;;;;;;18.58;2.90;;;;;;;8.87;100.00;100756.81;5054426;28;20028;-59
2022/11/24 10:07:30;;;;;;;13.93;2.95;;;;;;;8.86;100.00;100757.69;5054868;28;20038;-59
2022/11/24 10:10:06;;;;;;;13.90;2.53;;;;;;;8.90;100.00;100760.19;5051945;28;20029;-59
2022/11/24 10:12:31;;;;;;;18.13;3.00;;;;;;;8.70;100.00;100703.91;5054212;28;20029;-60
2022/11/24 10:15:11;;;;;;;10.93;3.17;;;;;;;9.17;100.00;100768.22;5067054;28;20082;-60
2022/11/24 10:17:49;;;;;;;15.57;3.03;;;;;;;9.21;100.00;100775.97;5064407;28;20487;-59
2022/11/24 10:20:26;;;;;;;16.08;3.20;;;;;;;9.18;100.00;100781.31;5053715;28;20105;-61
2022/11/24 10:23:08;;;;;;;18.08;4.05;;;;;;;9.14;100.00;100763.03;5053802;28;20037;-59
2022/11/24 10:25:47;;;;;;;15.38;3.67;;;;;;;9.15;100.00;100784.03;5052525;28;20067;-59
2022/11/24 10:28:14;;;;;;;18.15;3.40;;;;;;;9.04;100.00;100770.34;5065329;28;20024;-61
2022/11/24 10:30:40;;;;;;;16.58;3.35;;;;;;;9.04;100.00;100765.94;5072632;28;20387;-59
2022/11/24 10:33:19;;;;;;;22.50;4.30;;;;;;;9.10;100.00;100785.91;5070592;28;20039;-59
2022/11/24 10:35:59;;;;;;;17.92;3.72;;;;;;;9.03;100.00;100771.22;5073546;28;20029;-59
2022/11/24 10:38:33;;;;;;;13.32;3.40;;;;;;;9.09;100.00;100785.94;5070441;28;20060;-59
2022/11/24 10:41:04;;;;;;;13.63;3.47;;;;;;;9.00;100.00;100776.56;5069863;28;20029;-58
2022/11/24 10:43:29;;;;;;;21.37;3.63;;;;;;;9.08;100.00;100790.34;5070475;28;20120;-58
2022/11/24 10:46:19;;;;;;;21.85;5.22;;;;;;;9.03;100.00;100802.72;5070094;28;20463;-59
2022/11/24 10:48:49;;;;;;;16.73;3.90;;;;;;;8.66;100.00;100723.25;5069630;28;20036;-59
2022/11/24 10:51:50;;;;;;;15.18;4.38;;;;;;;9.01;100.00;100780.91;5070992;28;20028;-58
2022/11/24 10:54:21;;;;;;;14.98;3.65;;;;;;;8.84;100.00;100755.09;5069848;28;20033;-58
2022/11/24 10:56:49;;;;;;;17.05;3.17;;;;;;;9.14;100.00;100807.69;5070853;28;20042;-59
2022/11/24 10:59:24;;;;;;;21.15;3.67;;;;;;;9.12;100.00;100793.75;5069562;28;20475;-59
2022/11/24 11:01:52;;;;;;;19.55;4.38;;;;;;;8.93;100.00;100767.13;5069528;28;20395;-59
2022/11/24 11:04:20;;;;;;;20.08;4.75;;;;;;;8.74;100.00;100740.50;5069267;28;20392;-59
2022/11/24 11:06:45;;;;;;;15.45;3.75;;;;;;;8.53;100.00;100714.81;5070798;28;20574;-59
2022/11/24 11:09:20;;;;;;;16.77;4.05;;;;;;;8.97;100.00;100790.63;5070933;28;20119;-59
2022/11/24 11:11:49;;;;;;;15.57;4.10;;;;;;;8.96;100.00;100791.53;5069411;28;20128;-58
2022/11/24 11:14:34;;;;;;;18.20;3.88;;;;;;;8.93;100.00;100780.25;5070805;28;20138;-58
2022/11/24 11:16:59;;;;;;;16.27;4.07;;;;;;;9.05;100.00;100793.91;5070367;28;20462;-60
2022/11/24 11:19:42;;;;;;;20.30;4.60;;;;;;;8.75;100.00;100738.75;5070303;28;20040;-58
2022/11/24 11:22:11;;;;;;;20.40;3.90;;;;;;;9.21;100.00;100809.25;5069141;28;20094;-59
2022/11/24 11:24:40;;;;;;;16.55;4.35;;;;;;;8.74;100.00;100721.28;5070555;28;20071;-58
2022/11/24 11:27:21;;;;;;;17.55;4.43;;;;;;;9.21;100.00;100801.38;5069048;28;20115;-59
2022/11/24 11:29:47;;;;;;;19.50;4.93;;;;;;;8.80;100.00;100734.22;5068938;28;20147;-59